sensor_id;sensor_type;location;lat;lon;timestamp;temperature;humidity
7694;DHT22;3889;48.162;11.510;2022-10-23T00:00:00;10.30;99.90
7694;DHT22;3889;48.162;11.510;2022-10-23T00:02:29;10.30;99.90
7694;DHT22;3889;48.162;11.510;2022-10-23T00:04:57;10.30;99.90
7694;DHT22;3889;48.162;11.510;2022-10-23T00:07:24;10.30;99.90
7694;DHT22;3889;48.162;11.510;2022-10-23T00:09:52;10.20;99.90
7694;DHT22;3889;48.162;11.510;2022-10-23T00:12:22;10.20;99.90
7694;DHT22;3889;48.162;11.510;2022-10-23T00:14:50;10.20;99.90
7694;DHT22;3889;48.162;11.510;2022-10-23T00:17:17;10.20;99.90
7694;DHT22;3889;48.162;11.510;2022-10-23T00:19:45;10.10;99.90
7694;DHT22;3889;48.162;11.510;2022-10-23T00:22:13;10.10;99.90
7694;DHT22;3889;48.162;11.510;2022-10-23T00:24:41;10.10;99.90
7694;DHT22;3889;48.162;11.510;2022-10-23T00:27:09;10.00;99.90
7694;DHT22;3889;48.162;11.510;2022-10-23T00:29:38;10.00;99.90
7694;DHT22;3889;48.162;11.510;2022-10-23T00:32:05;10.00;99.90
7694;DHT22;3889;48.162;11.510;2022-10-23T00:34:33;10.00;99.90
7694;DHT22;3889;48.162;11.510;2022-10-23T00:37:01;10.00;99.90
7694;DHT22;3889;48.162;11.510;2022-10-23T00:39:29;10.00;99.90
7694;DHT22;3889;48.162;11.510;2022-10-23T00:41:57;9.90;99.90
7694;DHT22;3889;48.162;11.510;2022-10-23T00:47:51;9.80;99.90
7694;DHT22;3889;48.162;11.510;2022-10-23T00:50:20;9.90;99.90
7694;DHT22;3889;48.162;11.510;2022-10-23T00:52:51;9.90;99.90
7694;DHT22;3889;48.162;11.510;2022-10-23T00:55:21;9.90;99.90
7694;DHT22;3889;48.162;11.510;2022-10-23T00:57:50;9.80;99.90
7694;DHT22;3889;48.162;11.510;2022-10-23T01:00:21;9.80;99.90
7694;DHT22;3889;48.162;11.510;2022-10-23T01:02:50;9.70;99.90
7694;DHT22;3889;48.162;11.510;2022-10-23T01:05:21;9.70;99.90
7694;DHT22;3889;48.162;11.510;2022-10-23T01:07:54;9.60;99.90
7694;DHT22;3889;48.162;11.510;2022-10-23T01:10:30;9.50;99.90
7694;DHT22;3889;48.162;11.510;2022-10-23T01:13:05;9.50;99.90
7694;DHT22;3889;48.162;11.510;2022-10-23T01:15:40;9.50;99.90
7694;DHT22;3889;48.162;11.510;2022-10-23T01:18:17;9.40;99.90
7694;DHT22;3889;48.162;11.510;2022-10-23T01:20:51;9.40;99.90
7694;DHT22;3889;48.162;11.510;2022-10-23T01:23:31;9.30;99.90
7694;DHT22;3889;48.162;11.510;2022-10-23T01:26:14;9.40;99.90
7694;DHT22;3889;48.162;11.510;2022-10-23T01:28:48;9.40;99.90
7694;DHT22;3889;48.162;11.510;2022-10-23T01:31:22;9.40;99.90
7694;DHT22;3889;48.162;11.510;2022-10-23T01:33:55;9.30;99.90
7694;DHT22;3889;48.162;11.510;2022-10-23T01:36:27;9.30;99.90
7694;DHT22;3889;48.162;11.510;2022-10-23T01:38:59;9.30;99.90
7694;DHT22;3889;48.162;11.510;2022-10-23T01:41:33;9.30;99.90
7694;DHT22;3889;48.162;11.510;2022-10-23T01:44:08;9.20;99.90
7694;DHT22;3889;48.162;11.510;2022-10-23T01:46:38;9.30;99.90
7694;DHT22;3889;48.162;11.510;2022-10-23T01:49:10;9.30;99.90
7694;DHT22;3889;48.162;11.510;2022-10-23T01:51:40;9.30;99.90
7694;DHT22;3889;48.162;11.510;2022-10-23T01:54:11;9.30;99.90
7694;DHT22;3889;48.162;11.510;2022-10-23T01:56:43;9.40;99.90
7694;DHT22;3889;48.162;11.510;2022-10-23T01:59:17;9.40;99.90
7694;DHT22;3889;48.162;11.510;2022-10-23T02:01:50;9.40;99.90
7694;DHT22;3889;48.162;11.510;2022-10-23T02:04:22;9.40;99.90
7694;DHT22;3889;48.162;11.510;2022-10-23T02:06:51;9.40;99.90
7694;DHT22;3889;48.162;11.510;2022-10-23T02:09:19;9.30;99.90
7694;DHT22;3889;48.162;11.510;2022-10-23T02:11:52;9.30;99.90
7694;DHT22;3889;48.162;11.510;2022-10-23T02:14:32;9.30;99.90
7694;DHT22;3889;48.162;11.510;2022-10-23T02:17:08;9.30;99.90
7694;DHT22;3889;48.162;11.510;2022-10-23T02:19:42;9.30;99.90
7694;DHT22;3889;48.162;11.510;2022-10-23T02:22:17;9.20;99.90
7694;DHT22;3889;48.162;11.510;2022-10-23T02:24:50;9.20;99.90
7694;DHT22;3889;48.162;11.510;2022-10-23T02:27:23;9.20;99.90
7694;DHT22;3889;48.162;11.510;2022-10-23T02:29:57;9.20;99.90
7694;DHT22;3889;48.162;11.510;2022-10-23T02:32:28;9.10;99.90
7694;DHT22;3889;48.162;11.510;2022-10-23T02:34:56;9.10;99.90
7694;DHT22;3889;48.162;11.510;2022-10-23T02:37:24;9.10;99.90
7694;DHT22;3889;48.162;11.510;2022-10-23T02:39:52;9.10;99.90
7694;DHT22;3889;48.162;11.510;2022-10-23T02:42:25;9.10;99.90
7694;DHT22;3889;48.162;11.510;2022-10-23T02:45:03;9.10;99.90
7694;DHT22;3889;48.162;11.510;2022-10-23T02:47:39;9.10;99.90
7694;DHT22;3889;48.162;11.510;2022-10-23T02:50:17;9.20;99.90
7694;DHT22;3889;48.162;11.510;2022-10-23T02:52:55;9.10;99.90
7694;DHT22;3889;48.162;11.510;2022-10-23T02:55:33;9.20;99.90
7694;DHT22;3889;48.162;11.510;2022-10-23T02:58:09;9.20;99.90
7694;DHT22;3889;48.162;11.510;2022-10-23T03:00:44;9.20;99.90
7694;DHT22;3889;48.162;11.510;2022-10-23T03:03:16;9.20;99.90
7694;DHT22;3889;48.162;11.510;2022-10-23T03:05:44;9.20;99.90
7694;DHT22;3889;48.162;11.510;2022-10-23T03:08:13;9.10;99.90
7694;DHT22;3889;48.162;11.510;2022-10-23T03:10:41;9.10;99.90
7694;DHT22;3889;48.162;11.510;2022-10-23T03:13:10;9.10;99.90
7694;DHT22;3889;48.162;11.510;2022-10-23T03:15:38;9.00;99.90
7694;DHT22;3889;48.162;11.510;2022-10-23T03:18:07;9.00;99.90
7694;DHT22;3889;48.162;11.510;2022-10-23T03:20:35;9.00;99.90
7694;DHT22;3889;48.162;11.510;2022-10-23T03:23:03;9.00;99.90
7694;DHT22;3889;48.162;11.510;2022-10-23T03:25:30;8.90;99.90
7694;DHT22;3889;48.162;11.510;2022-10-23T03:27:58;8.90;99.90
7694;DHT22;3889;48.162;11.510;2022-10-23T03:30:26;8.80;99.90
7694;DHT22;3889;48.162;11.510;2022-10-23T03:32:54;8.90;99.90
7694;DHT22;3889;48.162;11.510;2022-10-23T03:35:23;8.90;99.90
7694;DHT22;3889;48.162;11.510;2022-10-23T03:37:51;8.90;99.90
7694;DHT22;3889;48.162;11.510;2022-10-23T03:40:19;8.80;99.90
7694;DHT22;3889;48.162;11.510;2022-10-23T03:42:46;8.80;99.90
7694;DHT22;3889;48.162;11.510;2022-10-23T03:45:14;8.70;99.90
7694;DHT22;3889;48.162;11.510;2022-10-23T03:47:42;8.80;99.90
7694;DHT22;3889;48.162;11.510;2022-10-23T03:50:11;8.80;99.90
7694;DHT22;3889;48.162;11.510;2022-10-23T03:52:40;8.70;99.90
7694;DHT22;3889;48.162;11.510;2022-10-23T03:55:09;8.70;99.90
7694;DHT22;3889;48.162;11.510;2022-10-23T03:57:37;8.60;99.90
7694;DHT22;3889;48.162;11.510;2022-10-23T04:00:06;8.70;99.90
7694;DHT22;3889;48.162;11.510;2022-10-23T04:02:34;8.70;99.90
7694;DHT22;3889;48.162;11.510;2022-10-23T04:05:03;8.70;99.90
7694;DHT22;3889;48.162;11.510;2022-10-23T04:07:30;8.60;99.90
7694;DHT22;3889;48.162;11.510;2022-10-23T04:10:00;8.60;99.90
7694;DHT22;3889;48.162;11.510;2022-10-23T04:12:27;8.60;99.90
7694;DHT22;3889;48.162;11.510;2022-10-23T04:14:55;8.70;99.90
7694;DHT22;3889;48.162;11.510;2022-10-23T04:17:23;8.70;99.90
7694;DHT22;3889;48.162;11.510;2022-10-23T04:19:51;8.60;99.90
7694;DHT22;3889;48.162;11.510;2022-10-23T04:22:19;8.60;99.90
7694;DHT22;3889;48.162;11.510;2022-10-23T04:24:53;8.70;99.90
7694;DHT22;3889;48.162;11.510;2022-10-23T04:27:22;8.70;99.90
7694;DHT22;3889;48.162;11.510;2022-10-23T04:29:49;8.70;99.90
7694;DHT22;3889;48.162;11.510;2022-10-23T04:32:22;8.60;99.90
7694;DHT22;3889;48.162;11.510;2022-10-23T04:34:50;8.60;99.90
7694;DHT22;3889;48.162;11.510;2022-10-23T04:37:17;8.60;99.90
7694;DHT22;3889;48.162;11.510;2022-10-23T04:39:45;8.70;99.90
7694;DHT22;3889;48.162;11.510;2022-10-23T04:42:13;8.70;99.90
7694;DHT22;3889;48.162;11.510;2022-10-23T04:44:42;8.70;99.90
7694;DHT22;3889;48.162;11.510;2022-10-23T04:47:10;8.70;99.90
7694;DHT22;3889;48.162;11.510;2022-10-23T04:49:38;8.60;99.90
7694;DHT22;3889;48.162;11.510;2022-10-23T04:52:06;8.60;99.90
7694;DHT22;3889;48.162;11.510;2022-10-23T04:54:37;8.60;99.90
7694;DHT22;3889;48.162;11.510;2022-10-23T04:57:05;8.50;99.90
7694;DHT22;3889;48.162;11.510;2022-10-23T04:59:33;8.60;99.90
7694;DHT22;3889;48.162;11.510;2022-10-23T05:02:02;8.70;99.90
7694;DHT22;3889;48.162;11.510;2022-10-23T05:04:30;8.70;99.90
7694;DHT22;3889;48.162;11.510;2022-10-23T05:06:57;8.60;99.90
7694;DHT22;3889;48.162;11.510;2022-10-23T05:09:25;8.60;99.90
7694;DHT22;3889;48.162;11.510;2022-10-23T05:11:53;8.60;99.90
7694;DHT22;3889;48.162;11.510;2022-10-23T05:14:21;8.60;99.90
7694;DHT22;3889;48.162;11.510;2022-10-23T05:16:52;8.60;99.90
7694;DHT22;3889;48.162;11.510;2022-10-23T05:19:28;8.60;99.90
7694;DHT22;3889;48.162;11.510;2022-10-23T05:21:57;8.60;99.90
7694;DHT22;3889;48.162;11.510;2022-10-23T05:24:25;8.60;99.90
7694;DHT22;3889;48.162;11.510;2022-10-23T05:26:53;8.60;99.90
7694;DHT22;3889;48.162;11.510;2022-10-23T05:29:21;8.60;99.90
7694;DHT22;3889;48.162;11.510;2022-10-23T05:31:52;8.60;99.90
7694;DHT22;3889;48.162;11.510;2022-10-23T05:34:23;8.60;99.90
7694;DHT22;3889;48.162;11.510;2022-10-23T05:36:53;8.50;99.90
7694;DHT22;3889;48.162;11.510;2022-10-23T05:39:21;8.50;99.90
7694;DHT22;3889;48.162;11.510;2022-10-23T05:41:49;8.50;99.90
7694;DHT22;3889;48.162;11.510;2022-10-23T05:44:17;8.50;99.90
7694;DHT22;3889;48.162;11.510;2022-10-23T05:46:45;8.50;99.90
7694;DHT22;3889;48.162;11.510;2022-10-23T05:49:13;8.50;99.90
7694;DHT22;3889;48.162;11.510;2022-10-23T05:51:42;8.50;99.90
7694;DHT22;3889;48.162;11.510;2022-10-23T05:54:10;8.50;99.90
7694;DHT22;3889;48.162;11.510;2022-10-23T05:56:38;8.50;99.90
7694;DHT22;3889;48.162;11.510;2022-10-23T05:59:07;8.50;99.90
7694;DHT22;3889;48.162;11.510;2022-10-23T06:01:35;8.50;99.90
7694;DHT22;3889;48.162;11.510;2022-10-23T06:04:04;8.50;99.90
7694;DHT22;3889;48.162;11.510;2022-10-23T06:06:32;8.50;99.90
7694;DHT22;3889;48.162;11.510;2022-10-23T06:09:01;8.50;99.90
7694;DHT22;3889;48.162;11.510;2022-10-23T06:11:29;8.50;99.90
7694;DHT22;3889;48.162;11.510;2022-10-23T06:13:57;8.50;99.90
7694;DHT22;3889;48.162;11.510;2022-10-23T06:16:26;8.50;99.90
7694;DHT22;3889;48.162;11.510;2022-10-23T06:18:54;8.50;99.90
7694;DHT22;3889;48.162;11.510;2022-10-23T06:21:23;8.50;99.90
7694;DHT22;3889;48.162;11.510;2022-10-23T06:23:51;8.60;99.90
7694;DHT22;3889;48.162;11.510;2022-10-23T06:26:20;8.60;99.90
7694;DHT22;3889;48.162;11.510;2022-10-23T06:28:48;8.60;99.90
7694;DHT22;3889;48.162;11.510;2022-10-23T06:31:16;8.60;99.90
7694;DHT22;3889;48.162;11.510;2022-10-23T06:33:45;8.70;99.90
7694;DHT22;3889;48.162;11.510;2022-10-23T06:36:13;8.60;99.90
7694;DHT22;3889;48.162;11.510;2022-10-23T06:38:41;8.70;99.90
7694;DHT22;3889;48.162;11.510;2022-10-23T06:41:12;8.80;99.90
7694;DHT22;3889;48.162;11.510;2022-10-23T06:43:41;8.80;99.90
7694;DHT22;3889;48.162;11.510;2022-10-23T06:46:09;8.90;99.90
7694;DHT22;3889;48.162;11.510;2022-10-23T06:48:37;8.90;99.90
7694;DHT22;3889;48.162;11.510;2022-10-23T06:51:07;9.00;99.90
7694;DHT22;3889;48.162;11.510;2022-10-23T06:53:35;9.10;99.90
7694;DHT22;3889;48.162;11.510;2022-10-23T06:56:05;9.10;99.90
7694;DHT22;3889;48.162;11.510;2022-10-23T06:58:33;9.20;99.90
7694;DHT22;3889;48.162;11.510;2022-10-23T07:01:04;9.20;99.90
7694;DHT22;3889;48.162;11.510;2022-10-23T07:03:32;9.30;99.90
7694;DHT22;3889;48.162;11.510;2022-10-23T07:06:01;9.40;99.90
7694;DHT22;3889;48.162;11.510;2022-10-23T07:08:29;9.40;99.90
7694;DHT22;3889;48.162;11.510;2022-10-23T07:11:02;9.50;99.90
7694;DHT22;3889;48.162;11.510;2022-10-23T07:13:31;9.60;99.90
7694;DHT22;3889;48.162;11.510;2022-10-23T07:16:10;9.60;99.90
7694;DHT22;3889;48.162;11.510;2022-10-23T07:18:38;9.70;99.90
7694;DHT22;3889;48.162;11.510;2022-10-23T07:21:06;9.80;99.90
7694;DHT22;3889;48.162;11.510;2022-10-23T07:23:34;9.90;99.90
7694;DHT22;3889;48.162;11.510;2022-10-23T07:26:04;10.00;99.90
7694;DHT22;3889;48.162;11.510;2022-10-23T07:28:32;10.10;99.90
7694;DHT22;3889;48.162;11.510;2022-10-23T07:31:00;10.20;99.90
7694;DHT22;3889;48.162;11.510;2022-10-23T07:33:29;10.20;99.90
7694;DHT22;3889;48.162;11.510;2022-10-23T07:35:57;10.30;99.90
7694;DHT22;3889;48.162;11.510;2022-10-23T07:38:25;10.30;99.90
7694;DHT22;3889;48.162;11.510;2022-10-23T07:40:52;10.40;99.90
7694;DHT22;3889;48.162;11.510;2022-10-23T07:43:21;10.40;99.90
7694;DHT22;3889;48.162;11.510;2022-10-23T07:45:49;10.50;99.90
7694;DHT22;3889;48.162;11.510;2022-10-23T07:48:17;10.60;99.90
7694;DHT22;3889;48.162;11.510;2022-10-23T07:50:47;10.70;99.90
7694;DHT22;3889;48.162;11.510;2022-10-23T07:53:17;10.70;99.90
7694;DHT22;3889;48.162;11.510;2022-10-23T07:55:51;10.80;99.90
7694;DHT22;3889;48.162;11.510;2022-10-23T07:58:19;10.80;99.90
7694;DHT22;3889;48.162;11.510;2022-10-23T08:00:53;10.90;99.90
7694;DHT22;3889;48.162;11.510;2022-10-23T08:03:21;11.00;99.90
7694;DHT22;3889;48.162;11.510;2022-10-23T08:05:51;11.10;99.90
7694;DHT22;3889;48.162;11.510;2022-10-23T08:08:19;11.20;99.90
7694;DHT22;3889;48.162;11.510;2022-10-23T08:10:47;11.30;99.90
7694;DHT22;3889;48.162;11.510;2022-10-23T08:13:15;11.40;99.90
7694;DHT22;3889;48.162;11.510;2022-10-23T08:15:47;11.60;99.90
7694;DHT22;3889;48.162;11.510;2022-10-23T08:18:15;11.70;99.90
7694;DHT22;3889;48.162;11.510;2022-10-23T08:20:45;11.80;99.90
7694;DHT22;3889;48.162;11.510;2022-10-23T08:23:16;12.00;99.90
7694;DHT22;3889;48.162;11.510;2022-10-23T08:25:45;12.10;99.90
7694;DHT22;3889;48.162;11.510;2022-10-23T08:28:13;12.30;99.90
7694;DHT22;3889;48.162;11.510;2022-10-23T08:30:42;12.40;99.90
7694;DHT22;3889;48.162;11.510;2022-10-23T08:33:09;12.60;99.90
7694;DHT22;3889;48.162;11.510;2022-10-23T08:35:37;12.70;99.90
7694;DHT22;3889;48.162;11.510;2022-10-23T08:38:06;12.80;99.90
7694;DHT22;3889;48.162;11.510;2022-10-23T08:40:35;12.90;99.90
7694;DHT22;3889;48.162;11.510;2022-10-23T08:43:10;13.00;99.90
7694;DHT22;3889;48.162;11.510;2022-10-23T08:45:43;13.00;99.90
7694;DHT22;3889;48.162;11.510;2022-10-23T08:48:17;13.10;99.90
7694;DHT22;3889;48.162;11.510;2022-10-23T08:50:50;13.20;99.90
7694;DHT22;3889;48.162;11.510;2022-10-23T08:53:28;13.30;99.90
7694;DHT22;3889;48.162;11.510;2022-10-23T08:56:02;13.40;99.90
7694;DHT22;3889;48.162;11.510;2022-10-23T08:58:35;13.50;99.90
7694;DHT22;3889;48.162;11.510;2022-10-23T09:01:29;13.70;99.90
7694;DHT22;3889;48.162;11.510;2022-10-23T09:03:59;13.80;99.90
7694;DHT22;3889;48.162;11.510;2022-10-23T09:06:37;13.90;99.90
7694;DHT22;3889;48.162;11.510;2022-10-23T09:09:19;14.10;99.90
7694;DHT22;3889;48.162;11.510;2022-10-23T09:12:00;14.20;99.90
7694;DHT22;3889;48.162;11.510;2022-10-23T09:14:47;14.30;99.90
7694;DHT22;3889;48.162;11.510;2022-10-23T09:17:22;14.50;99.90
7694;DHT22;3889;48.162;11.510;2022-10-23T09:19:54;14.50;99.90
7694;DHT22;3889;48.162;11.510;2022-10-23T09:22:26;14.60;99.90
7694;DHT22;3889;48.162;11.510;2022-10-23T09:24:54;14.60;99.90
7694;DHT22;3889;48.162;11.510;2022-10-23T09:27:23;14.60;99.90
7694;DHT22;3889;48.162;11.510;2022-10-23T09:29:53;14.80;99.90
7694;DHT22;3889;48.162;11.510;2022-10-23T09:32:32;15.00;99.90
7694;DHT22;3889;48.162;11.510;2022-10-23T09:35:00;15.00;99.90
7694;DHT22;3889;48.162;11.510;2022-10-23T09:37:30;15.10;99.90
7694;DHT22;3889;48.162;11.510;2022-10-23T09:40:13;15.20;99.90
7694;DHT22;3889;48.162;11.510;2022-10-23T09:42:57;15.40;99.90
7694;DHT22;3889;48.162;11.510;2022-10-23T09:45:29;15.50;99.90
7694;DHT22;3889;48.162;11.510;2022-10-23T09:48:16;15.70;99.90
7694;DHT22;3889;48.162;11.510;2022-10-23T09:50:52;15.80;99.90
7694;DHT22;3889;48.162;11.510;2022-10-23T09:53:32;16.00;99.90
7694;DHT22;3889;48.162;11.510;2022-10-23T09:56:03;16.20;99.90
7694;DHT22;3889;48.162;11.510;2022-10-23T09:58:38;16.30;99.90
7694;DHT22;3889;48.162;11.510;2022-10-23T10:01:20;16.40;99.90
7694;DHT22;3889;48.162;11.510;2022-10-23T10:03:50;16.60;99.90
7694;DHT22;3889;48.162;11.510;2022-10-23T10:06:22;16.70;99.90
7694;DHT22;3889;48.162;11.510;2022-10-23T10:08:52;16.80;99.90
7694;DHT22;3889;48.162;11.510;2022-10-23T10:11:25;16.90;99.90
7694;DHT22;3889;48.162;11.510;2022-10-23T10:14:23;17.00;99.90
7694;DHT22;3889;48.162;11.510;2022-10-23T10:16:59;17.10;99.90
7694;DHT22;3889;48.162;11.510;2022-10-23T10:19:37;17.10;99.90
7694;DHT22;3889;48.162;11.510;2022-10-23T10:22:19;17.20;99.90
7694;DHT22;3889;48.162;11.510;2022-10-23T10:24:58;17.30;99.90
7694;DHT22;3889;48.162;11.510;2022-10-23T10:27:38;17.30;99.90
7694;DHT22;3889;48.162;11.510;2022-10-23T10:30:13;17.30;99.90
7694;DHT22;3889;48.162;11.510;2022-10-23T10:32:46;17.40;99.90
7694;DHT22;3889;48.162;11.510;2022-10-23T10:35:36;17.50;99.90
7694;DHT22;3889;48.162;11.510;2022-10-23T10:38:35;17.60;99.90
7694;DHT22;3889;48.162;11.510;2022-10-23T10:41:31;17.60;99.90
7694;DHT22;3889;48.162;11.510;2022-10-23T10:44:24;17.70;99.90
7694;DHT22;3889;48.162;11.510;2022-10-23T10:46:58;17.70;99.90
7694;DHT22;3889;48.162;11.510;2022-10-23T10:49:35;17.80;99.90
7694;DHT22;3889;48.162;11.510;2022-10-23T10:52:12;17.80;99.90
7694;DHT22;3889;48.162;11.510;2022-10-23T10:54:51;17.80;99.90
7694;DHT22;3889;48.162;11.510;2022-10-23T10:57:29;17.80;99.90
7694;DHT22;3889;48.162;11.510;2022-10-23T11:00:02;17.90;99.90
7694;DHT22;3889;48.162;11.510;2022-10-23T11:02:36;17.90;99.90
7694;DHT22;3889;48.162;11.510;2022-10-23T11:05:17;17.90;99.90
7694;DHT22;3889;48.162;11.510;2022-10-23T11:07:53;18.00;99.90
7694;DHT22;3889;48.162;11.510;2022-10-23T11:10:21;18.00;99.90
7694;DHT22;3889;48.162;11.510;2022-10-23T11:12:50;18.00;99.90
7694;DHT22;3889;48.162;11.510;2022-10-23T11:15:21;18.20;99.90
7694;DHT22;3889;48.162;11.510;2022-10-23T11:17:54;18.30;99.90
7694;DHT22;3889;48.162;11.510;2022-10-23T11:20:43;18.30;99.90
7694;DHT22;3889;48.162;11.510;2022-10-23T11:23:35;18.30;99.90
7694;DHT22;3889;48.162;11.510;2022-10-23T11:26:17;18.40;99.90
7694;DHT22;3889;48.162;11.510;2022-10-23T11:29:11;18.40;99.90
7694;DHT22;3889;48.162;11.510;2022-10-23T11:31:49;18.50;99.90
7694;DHT22;3889;48.162;11.510;2022-10-23T11:34:41;18.60;99.90
7694;DHT22;3889;48.162;11.510;2022-10-23T11:37:16;18.70;99.90
7694;DHT22;3889;48.162;11.510;2022-10-23T11:39:59;18.70;99.90
7694;DHT22;3889;48.162;11.510;2022-10-23T11:42:32;18.80;99.90
7694;DHT22;3889;48.162;11.510;2022-10-23T11:45:00;18.90;99.90
7694;DHT22;3889;48.162;11.510;2022-10-23T11:47:32;19.00;99.90
7694;DHT22;3889;48.162;11.510;2022-10-23T11:50:23;19.00;99.90
7694;DHT22;3889;48.162;11.510;2022-10-23T11:52:58;19.10;99.90
7694;DHT22;3889;48.162;11.510;2022-10-23T11:55:56;19.10;99.90
7694;DHT22;3889;48.162;11.510;2022-10-23T11:58:26;19.00;99.90
7694;DHT22;3889;48.162;11.510;2022-10-23T12:01:01;19.10;99.90
7694;DHT22;3889;48.162;11.510;2022-10-23T12:03:46;19.10;99.90
7694;DHT22;3889;48.162;11.510;2022-10-23T12:06:20;19.10;99.90
7694;DHT22;3889;48.162;11.510;2022-10-23T12:08:52;19.20;99.90
7694;DHT22;3889;48.162;11.510;2022-10-23T12:11:39;19.30;99.90
7694;DHT22;3889;48.162;11.510;2022-10-23T12:14:31;19.40;99.90
7694;DHT22;3889;48.162;11.510;2022-10-23T12:17:00;19.50;99.90
7694;DHT22;3889;48.162;11.510;2022-10-23T12:19:29;19.50;99.90
7694;DHT22;3889;48.162;11.510;2022-10-23T12:22:12;19.50;99.90
7694;DHT22;3889;48.162;11.510;2022-10-23T12:24:52;19.50;99.90
7694;DHT22;3889;48.162;11.510;2022-10-23T12:27:29;19.60;99.90
7694;DHT22;3889;48.162;11.510;2022-10-23T12:30:10;19.50;99.90
7694;DHT22;3889;48.162;11.510;2022-10-23T12:33:10;19.50;99.90
7694;DHT22;3889;48.162;11.510;2022-10-23T12:36:04;19.40;99.90
7694;DHT22;3889;48.162;11.510;2022-10-23T12:38:43;19.30;99.90
7694;DHT22;3889;48.162;11.510;2022-10-23T12:41:14;19.30;99.90
7694;DHT22;3889;48.162;11.510;2022-10-23T12:43:44;19.40;99.90
7694;DHT22;3889;48.162;11.510;2022-10-23T12:46:28;19.40;99.90
7694;DHT22;3889;48.162;11.510;2022-10-23T12:48:59;19.40;99.90
7694;DHT22;3889;48.162;11.510;2022-10-23T12:51:29;19.40;99.90
7694;DHT22;3889;48.162;11.510;2022-10-23T12:54:00;19.50;99.90
7694;DHT22;3889;48.162;11.510;2022-10-23T12:56:34;19.50;99.90
7694;DHT22;3889;48.162;11.510;2022-10-23T12:59:04;19.50;99.90
7694;DHT22;3889;48.162;11.510;2022-10-23T13:01:37;19.50;99.90
7694;DHT22;3889;48.162;11.510;2022-10-23T13:04:13;19.60;99.90
7694;DHT22;3889;48.162;11.510;2022-10-23T13:06:49;19.70;99.90
7694;DHT22;3889;48.162;11.510;2022-10-23T13:09:22;19.70;99.90
7694;DHT22;3889;48.162;11.510;2022-10-23T13:11:51;19.80;99.90
7694;DHT22;3889;48.162;11.510;2022-10-23T13:14:30;19.80;99.90
7694;DHT22;3889;48.162;11.510;2022-10-23T13:17:00;19.80;99.90
7694;DHT22;3889;48.162;11.510;2022-10-23T13:19:28;19.80;99.90
7694;DHT22;3889;48.162;11.510;2022-10-23T13:21:56;19.80;99.90
7694;DHT22;3889;48.162;11.510;2022-10-23T13:24:28;19.70;99.90
7694;DHT22;3889;48.162;11.510;2022-10-23T13:26:57;19.80;99.90
7694;DHT22;3889;48.162;11.510;2022-10-23T13:29:27;19.80;99.90
7694;DHT22;3889;48.162;11.510;2022-10-23T13:31:56;19.80;99.90
7694;DHT22;3889;48.162;11.510;2022-10-23T13:34:26;19.80;99.90
7694;DHT22;3889;48.162;11.510;2022-10-23T13:37:00;19.80;99.90
7694;DHT22;3889;48.162;11.510;2022-10-23T13:39:31;19.70;99.90
7694;DHT22;3889;48.162;11.510;2022-10-23T13:42:08;19.70;99.90
7694;DHT22;3889;48.162;11.510;2022-10-23T13:44:37;19.60;99.90
7694;DHT22;3889;48.162;11.510;2022-10-23T13:47:07;19.60;99.90
7694;DHT22;3889;48.162;11.510;2022-10-23T13:49:37;19.60;99.90
7694;DHT22;3889;48.162;11.510;2022-10-23T13:52:09;19.60;99.90
7694;DHT22;3889;48.162;11.510;2022-10-23T13:54:38;19.60;99.90
7694;DHT22;3889;48.162;11.510;2022-10-23T13:57:11;19.50;99.90
7694;DHT22;3889;48.162;11.510;2022-10-23T13:59:40;19.40;99.90
7694;DHT22;3889;48.162;11.510;2022-10-23T14:02:16;19.30;99.90
7694;DHT22;3889;48.162;11.510;2022-10-23T14:04:44;19.30;99.90
7694;DHT22;3889;48.162;11.510;2022-10-23T14:07:13;19.30;99.90
7694;DHT22;3889;48.162;11.510;2022-10-23T14:09:42;19.20;99.90
7694;DHT22;3889;48.162;11.510;2022-10-23T14:12:10;19.30;99.90
7694;DHT22;3889;48.162;11.510;2022-10-23T14:14:39;19.20;99.90
7694;DHT22;3889;48.162;11.510;2022-10-23T14:17:07;19.20;99.90
7694;DHT22;3889;48.162;11.510;2022-10-23T14:19:34;19.20;99.90
7694;DHT22;3889;48.162;11.510;2022-10-23T14:22:07;19.20;99.90
7694;DHT22;3889;48.162;11.510;2022-10-23T14:24:35;19.10;99.90
7694;DHT22;3889;48.162;11.510;2022-10-23T14:27:04;19.00;99.90
7694;DHT22;3889;48.162;11.510;2022-10-23T14:29:32;18.90;99.90
7694;DHT22;3889;48.162;11.510;2022-10-23T14:32:00;18.90;99.90
7694;DHT22;3889;48.162;11.510;2022-10-23T14:34:28;18.80;99.90
7694;DHT22;3889;48.162;11.510;2022-10-23T14:36:55;18.70;99.90
7694;DHT22;3889;48.162;11.510;2022-10-23T14:39:34;18.70;99.90
7694;DHT22;3889;48.162;11.510;2022-10-23T14:42:03;18.60;99.90
7694;DHT22;3889;48.162;11.510;2022-10-23T14:44:31;18.60;99.90
7694;DHT22;3889;48.162;11.510;2022-10-23T14:47:00;18.60;99.90
7694;DHT22;3889;48.162;11.510;2022-10-23T14:49:28;18.50;99.90
7694;DHT22;3889;48.162;11.510;2022-10-23T14:51:56;18.50;99.90
7694;DHT22;3889;48.162;11.510;2022-10-23T14:54:24;18.40;99.90
7694;DHT22;3889;48.162;11.510;2022-10-23T14:56:53;18.40;99.90
7694;DHT22;3889;48.162;11.510;2022-10-23T14:59:23;18.30;99.90
7694;DHT22;3889;48.162;11.510;2022-10-23T15:01:51;18.20;99.90
7694;DHT22;3889;48.162;11.510;2022-10-23T15:04:19;18.10;99.90
7694;DHT22;3889;48.162;11.510;2022-10-23T15:06:47;18.10;99.90
7694;DHT22;3889;48.162;11.510;2022-10-23T15:09:15;18.20;99.90
7694;DHT22;3889;48.162;11.510;2022-10-23T15:11:45;18.00;99.90
7694;DHT22;3889;48.162;11.510;2022-10-23T15:14:13;17.90;99.90
7694;DHT22;3889;48.162;11.510;2022-10-23T15:16:42;17.80;99.90
7694;DHT22;3889;48.162;11.510;2022-10-23T15:19:11;17.70;99.90
7694;DHT22;3889;48.162;11.510;2022-10-23T15:21:45;17.70;99.90
7694;DHT22;3889;48.162;11.510;2022-10-23T15:24:13;17.60;99.90
7694;DHT22;3889;48.162;11.510;2022-10-23T15:26:41;17.50;99.90
7694;DHT22;3889;48.162;11.510;2022-10-23T15:29:10;17.40;99.90
7694;DHT22;3889;48.162;11.510;2022-10-23T15:31:57;17.30;99.90
7694;DHT22;3889;48.162;11.510;2022-10-23T15:34:26;17.10;99.90
7694;DHT22;3889;48.162;11.510;2022-10-23T15:36:55;17.00;99.90
7694;DHT22;3889;48.162;11.510;2022-10-23T15:39:26;17.00;99.90
7694;DHT22;3889;48.162;11.510;2022-10-23T15:41:55;16.90;99.90
7694;DHT22;3889;48.162;11.510;2022-10-23T15:44:25;16.80;99.90
7694;DHT22;3889;48.162;11.510;2022-10-23T15:46:54;16.80;99.90
7694;DHT22;3889;48.162;11.510;2022-10-23T15:49:25;16.70;99.90
7694;DHT22;3889;48.162;11.510;2022-10-23T15:51:54;16.70;99.90
7694;DHT22;3889;48.162;11.510;2022-10-23T15:54:22;16.60;99.90
7694;DHT22;3889;48.162;11.510;2022-10-23T15:56:56;16.50;99.90
7694;DHT22;3889;48.162;11.510;2022-10-23T15:59:25;16.40;99.90
7694;DHT22;3889;48.162;11.510;2022-10-23T16:01:53;16.40;99.90
7694;DHT22;3889;48.162;11.510;2022-10-23T16:04:21;16.30;99.90
7694;DHT22;3889;48.162;11.510;2022-10-23T16:06:51;16.20;99.90
7694;DHT22;3889;48.162;11.510;2022-10-23T16:09:19;16.20;99.90
7694;DHT22;3889;48.162;11.510;2022-10-23T16:11:47;16.10;99.90
7694;DHT22;3889;48.162;11.510;2022-10-23T16:14:15;16.10;99.90
7694;DHT22;3889;48.162;11.510;2022-10-23T16:16:43;16.00;99.90
7694;DHT22;3889;48.162;11.510;2022-10-23T16:19:11;16.00;99.90
7694;DHT22;3889;48.162;11.510;2022-10-23T16:21:40;15.90;99.90
7694;DHT22;3889;48.162;11.510;2022-10-23T16:24:10;15.90;99.90